createdAt,value
2023-03-31T00:00:16.447Z,12.40
2023-03-31T00:04:24.465Z,12.40
2023-03-31T00:08:35.656Z,12.50
2023-03-31T00:12:38.955Z,12.50
2023-03-31T00:16:41.506Z,12.60
2023-03-31T00:20:45.583Z,12.50
2023-03-31T00:24:48.615Z,12.20
2023-03-31T00:28:51.573Z,11.80
2023-03-31T00:32:59.847Z,11.50
2023-03-31T00:37:02.661Z,11.30
2023-03-31T00:41:06.711Z,11.30
2023-03-31T00:45:16.467Z,11.30
2023-03-31T00:49:24.108Z,11.40
2023-03-31T00:53:29.471Z,11.40
2023-03-31T00:57:34.433Z,11.30
2023-03-31T01:01:48.882Z,11.10
2023-03-31T01:05:54.889Z,11.10
2023-03-31T01:09:59.266Z,11.00
2023-03-31T01:14:03.350Z,10.90
2023-03-31T01:18:06.661Z,10.80
2023-03-31T01:22:27.306Z,10.80
2023-03-31T01:26:50.812Z,10.80
2023-03-31T01:31:11.967Z,11.00
2023-03-31T01:35:21.105Z,11.30
2023-03-31T01:39:42.959Z,11.60
2023-03-31T01:44:04.127Z,11.80
2023-03-31T01:48:18.316Z,12.00
2023-03-31T01:52:21.478Z,12.20
2023-03-31T01:56:33.356Z,12.30
2023-03-31T02:00:38.213Z,12.40
2023-03-31T02:04:43.246Z,12.50
2023-03-31T02:08:48.354Z,12.50
2023-03-31T02:12:51.506Z,12.50
2023-03-31T02:16:58.697Z,12.60
2023-03-31T02:21:01.408Z,12.60
2023-03-31T02:25:04.843Z,12.60
2023-03-31T02:29:07.459Z,12.60
2023-03-31T02:33:10.615Z,12.60
2023-03-31T02:37:14.824Z,12.70
2023-03-31T02:41:20.726Z,12.60
2023-03-31T02:45:42.431Z,12.60
2023-03-31T02:49:47.917Z,12.60
2023-03-31T02:54:01.153Z,12.60
2023-03-31T02:58:37.987Z,12.60
2023-03-31T03:02:43.839Z,12.50
2023-03-31T03:07:00.249Z,12.50
2023-03-31T03:11:12.689Z,12.50
2023-03-31T03:15:23.002Z,12.50
2023-03-31T03:19:30.352Z,12.40
2023-03-31T03:23:33.184Z,12.30
2023-03-31T03:27:36.054Z,12.20
2023-03-31T03:31:39.128Z,12.00
2023-03-31T03:35:41.701Z,11.80
2023-03-31T03:39:44.573Z,11.60
2023-03-31T03:43:47.153Z,11.50
2023-03-31T03:47:50.439Z,11.40
2023-03-31T03:51:53.087Z,11.30
2023-03-31T03:55:56.193Z,11.20
2023-03-31T03:59:58.794Z,11.20
2023-03-31T04:04:07.971Z,11.00
2023-03-31T04:08:11.727Z,11.00
2023-03-31T04:12:14.328Z,10.90
2023-03-31T04:16:17.171Z,10.80
2023-03-31T04:20:19.839Z,10.80
2023-03-31T04:24:22.596Z,10.70
2023-03-31T04:28:26.716Z,10.60
2023-03-31T04:32:33.139Z,10.60
2023-03-31T04:36:36.080Z,10.50
2023-03-31T04:40:40.060Z,10.40
2023-03-31T04:44:44.362Z,10.30
2023-03-31T04:48:47.019Z,10.30
2023-03-31T04:52:49.576Z,10.40
2023-03-31T04:56:53.163Z,10.50
2023-03-31T05:00:55.886Z,10.50
2023-03-31T05:05:00.605Z,10.50
2023-03-31T05:09:03.396Z,10.50
2023-03-31T05:13:05.920Z,10.50
2023-03-31T05:17:09.694Z,10.50
2023-03-31T05:21:13.972Z,10.50
2023-03-31T05:25:18.761Z,10.50
2023-03-31T05:29:22.123Z,10.60
2023-03-31T05:33:24.683Z,10.70
2023-03-31T05:37:27.210Z,10.80
2023-03-31T05:41:30.174Z,10.80
2023-03-31T05:45:32.983Z,10.80
2023-03-31T05:49:35.848Z,10.80
2023-03-31T05:53:38.755Z,10.80
2023-03-31T05:57:41.847Z,10.80
2023-03-31T06:01:44.451Z,10.80
2023-03-31T06:05:47.968Z,10.80
2023-03-31T06:09:50.523Z,10.80
2023-03-31T06:13:53.090Z,10.70
2023-03-31T06:17:55.837Z,10.70
2023-03-31T06:21:58.462Z,10.70
2023-03-31T06:26:08.450Z,10.90
2023-03-31T06:30:11.288Z,11.10
2023-03-31T06:34:15.172Z,11.50
2023-03-31T06:38:19.965Z,11.60
2023-03-31T06:42:22.796Z,11.80
2023-03-31T06:46:25.777Z,12.00
2023-03-31T06:50:28.338Z,12.10
2023-03-31T06:54:33.478Z,12.20
2023-03-31T06:58:36.666Z,12.30
2023-03-31T07:02:39.655Z,12.40
2023-03-31T07:06:42.738Z,12.50
2023-03-31T07:10:48.956Z,12.60
2023-03-31T07:14:51.750Z,12.70
2023-03-31T07:18:59.576Z,12.80
2023-03-31T07:23:04.550Z,12.80
2023-03-31T07:27:11.066Z,12.90
2023-03-31T07:31:14.447Z,13.00
2023-03-31T07:35:17.181Z,13.00
2023-03-31T07:39:19.792Z,13.10
2023-03-31T07:43:22.303Z,13.10
2023-03-31T07:47:24.954Z,13.20
2023-03-31T07:51:27.637Z,13.30
2023-03-31T07:55:30.521Z,13.40
2023-03-31T07:59:33.317Z,13.50
2023-03-31T08:03:36.384Z,13.50
2023-03-31T08:07:40.378Z,13.60
2023-03-31T08:11:44.823Z,13.60
2023-03-31T08:15:48.588Z,13.70
2023-03-31T08:19:52.278Z,13.80
2023-03-31T08:23:55.640Z,13.80
2023-03-31T08:27:58.315Z,14.00
2023-03-31T08:32:00.985Z,13.90
2023-03-31T08:36:09.559Z,14.00
2023-03-31T08:40:18.800Z,14.10
2023-03-31T08:44:26.774Z,14.10
2023-03-31T08:48:38.819Z,14.10
2023-03-31T08:52:48.780Z,14.20
2023-03-31T08:56:52.087Z,14.20
2023-03-31T09:00:59.724Z,14.30
2023-03-31T09:05:02.388Z,14.40
2023-03-31T09:09:08.344Z,14.40
2023-03-31T09:13:26.462Z,14.50
2023-03-31T09:17:29.028Z,14.50
2023-03-31T09:21:31.666Z,14.60
2023-03-31T09:25:36.010Z,14.60
2023-03-31T09:29:43.422Z,14.80
2023-03-31T09:33:46.783Z,14.90
2023-03-31T09:37:49.739Z,15.00
2023-03-31T09:41:54.039Z,15.00
2023-03-31T09:46:09.383Z,15.20
2023-03-31T09:50:13.438Z,15.10
2023-03-31T09:54:25.108Z,15.20
2023-03-31T09:58:29.007Z,15.10
2023-03-31T10:02:40.662Z,15.10
2023-03-31T10:06:43.336Z,15.20
2023-03-31T10:10:48.507Z,15.20
2023-03-31T10:14:52.940Z,15.20
2023-03-31T10:18:57.387Z,15.20
2023-03-31T10:23:02.803Z,15.10
2023-03-31T10:27:06.460Z,15.00
2023-03-31T10:31:11.453Z,15.00
2023-03-31T10:35:27.909Z,15.00
2023-03-31T10:39:32.858Z,15.00
2023-03-31T10:43:38.445Z,15.00
2023-03-31T10:47:41.430Z,15.00
2023-03-31T10:51:54.137Z,15.00
2023-03-31T10:56:29.184Z,15.10
2023-03-31T11:00:32.926Z,15.10
2023-03-31T11:04:47.787Z,15.20
2023-03-31T11:09:10.666Z,15.30
2023-03-31T11:13:20.096Z,15.40
2023-03-31T11:17:28.807Z,15.50
2023-03-31T11:21:31.376Z,15.50
2023-03-31T11:25:49.027Z,15.50
2023-03-31T11:30:00.824Z,15.50
2023-03-31T11:34:13.752Z,15.50
2023-03-31T11:38:35.944Z,15.50
2023-03-31T11:42:42.520Z,15.60
2023-03-31T11:46:51.844Z,15.70
2023-03-31T11:50:55.083Z,15.80
2023-03-31T11:54:57.698Z,15.90
2023-03-31T11:59:00.740Z,16.10
2023-03-31T12:03:07.979Z,16.20
2023-03-31T12:07:11.317Z,16.40
2023-03-31T12:11:22.440Z,16.50
2023-03-31T12:15:27.645Z,16.70
2023-03-31T12:19:37.412Z,16.70
2023-03-31T12:23:46.629Z,16.60
2023-03-31T12:27:50.678Z,16.60
2023-03-31T12:31:56.235Z,16.50
2023-03-31T12:36:01.954Z,16.50
2023-03-31T12:40:14.838Z,16.50
2023-03-31T12:44:26.724Z,16.60
2023-03-31T12:48:32.643Z,16.70
2023-03-31T12:52:35.268Z,16.80
2023-03-31T12:56:56.576Z,16.90
2023-03-31T13:01:07.354Z,17.00
2023-03-31T13:05:29.637Z,17.10
2023-03-31T13:09:39.772Z,17.20
2023-03-31T13:14:02.438Z,17.30
2023-03-31T13:18:06.488Z,17.30
2023-03-31T13:22:28.078Z,17.40
2023-03-31T13:26:33.853Z,17.50
2023-03-31T13:30:36.891Z,17.50
2023-03-31T13:35:05.875Z,17.50
2023-03-31T13:39:20.948Z,17.50
2023-03-31T13:43:32.790Z,17.40
2023-03-31T13:47:41.499Z,17.50
2023-03-31T13:51:53.647Z,17.50
2023-03-31T13:56:15.597Z,17.50
2023-03-31T14:00:21.359Z,17.50
2023-03-31T14:04:31.087Z,17.50
2023-03-31T14:08:39.662Z,17.40
2023-03-31T14:12:44.447Z,17.40
2023-03-31T14:16:55.885Z,17.30
2023-03-31T14:21:12.201Z,17.20
2023-03-31T14:25:34.988Z,17.20
2023-03-31T14:29:37.595Z,17.30
2023-03-31T14:33:49.279Z,17.30
2023-03-31T14:37:52.236Z,17.40
2023-03-31T14:41:57.016Z,17.40
2023-03-31T14:46:04.708Z,17.50
2023-03-31T14:50:17.760Z,17.60
2023-03-31T14:54:21.039Z,17.70
2023-03-31T14:58:27.015Z,17.80
2023-03-31T15:02:31.986Z,17.80
2023-03-31T15:06:34.722Z,18.00
2023-03-31T15:10:42.958Z,18.00
2023-03-31T15:14:47.941Z,18.00
2023-03-31T15:18:53.943Z,18.10
2023-03-31T15:22:57.510Z,18.20
2023-03-31T15:27:09.891Z,18.40
2023-03-31T15:31:13.942Z,18.50
2023-03-31T15:35:22.715Z,18.80
2023-03-31T15:39:26.875Z,19.00
2023-03-31T15:43:50.885Z,19.00
2023-03-31T15:47:55.504Z,19.00
2023-03-31T15:52:00.596Z,19.00
2023-03-31T15:56:03.356Z,18.90
2023-03-31T16:00:08.047Z,18.80
2023-03-31T16:04:16.969Z,18.70
2023-03-31T16:08:24.977Z,18.50
2023-03-31T16:12:28.509Z,18.50
2023-03-31T16:16:32.009Z,18.60
2023-03-31T16:20:40.731Z,18.90
2023-03-31T16:24:43.423Z,19.00
2023-03-31T16:28:49.388Z,19.00
2023-03-31T16:33:18.978Z,18.90
2023-03-31T16:37:22.296Z,18.60
2023-03-31T16:41:27.156Z,18.40
2023-03-31T16:45:29.686Z,18.10
2023-03-31T16:49:32.246Z,17.90
2023-03-31T16:53:37.801Z,17.70
2023-03-31T16:57:40.704Z,17.50
2023-03-31T17:01:43.542Z,17.30
2023-03-31T17:05:47.656Z,17.10
2023-03-31T17:09:50.438Z,17.00
2023-03-31T17:13:54.855Z,16.80
2023-03-31T17:17:59.145Z,16.60
2023-03-31T17:22:03.649Z,16.50
2023-03-31T17:26:07.231Z,16.40
2023-03-31T17:30:10.122Z,16.40
2023-03-31T17:34:12.890Z,16.30
2023-03-31T17:38:15.880Z,16.20
2023-03-31T17:42:20.629Z,16.10
2023-03-31T17:46:23.262Z,16.00
2023-03-31T17:50:26.564Z,16.00
2023-03-31T17:54:29.279Z,15.90
2023-03-31T17:58:32.494Z,15.80
2023-03-31T18:02:39.224Z,15.80
2023-03-31T18:06:42.417Z,15.80
2023-03-31T18:10:48.067Z,15.70
2023-03-31T18:14:51.146Z,15.70
2023-03-31T18:23:45.679Z,15.60
2023-03-31T18:27:51.487Z,15.60
2023-03-31T18:32:00.072Z,15.50
2023-03-31T18:36:05.335Z,15.50
2023-03-31T18:40:08.336Z,15.50
2023-03-31T18:44:11.567Z,15.40
2023-03-31T18:48:17.505Z,15.40
2023-03-31T18:52:20.606Z,15.30
2023-03-31T18:56:45.029Z,15.30
2023-03-31T19:01:13.477Z,15.30
2023-03-31T19:05:20.674Z,15.30
2023-03-31T19:09:27.822Z,15.30
2023-03-31T19:13:33.980Z,15.30
2023-03-31T19:17:38.378Z,15.20
2023-03-31T19:21:41.812Z,15.20
2023-03-31T19:25:46.145Z,15.20
2023-03-31T19:34:28.310Z,15.10
2023-03-31T19:39:12.644Z,15.00
2023-03-31T19:43:20.957Z,15.00
2023-03-31T19:47:25.947Z,15.00
2023-03-31T19:51:29.809Z,15.00
2023-03-31T19:55:34.314Z,14.90
2023-03-31T19:59:36.848Z,14.90
2023-03-31T20:03:39.617Z,14.90
2023-03-31T20:07:42.575Z,14.90
2023-03-31T20:11:45.631Z,14.80
2023-03-31T20:15:48.738Z,14.80
2023-03-31T20:19:53.618Z,14.80
2023-03-31T20:23:59.771Z,14.80
2023-03-31T20:28:02.897Z,14.80
2023-03-31T20:32:06.384Z,14.80
2023-03-31T20:36:14.217Z,14.80
2023-03-31T20:40:17.007Z,14.80
2023-03-31T20:44:20.288Z,14.80
2023-03-31T20:48:23.439Z,14.80
2023-03-31T20:52:27.449Z,14.80
2023-03-31T20:56:30.516Z,14.80
2023-03-31T21:00:33.399Z,14.70
2023-03-31T21:04:36.255Z,14.60
2023-03-31T21:08:39.407Z,14.60
2023-03-31T21:12:46.299Z,14.50
2023-03-31T21:16:49.869Z,14.50
2023-03-31T21:20:53.771Z,14.40
2023-03-31T21:24:56.840Z,14.40
2023-03-31T21:29:00.450Z,14.40
2023-03-31T21:33:03.194Z,14.40
2023-03-31T21:37:05.987Z,14.40
2023-03-31T21:41:10.841Z,14.30
2023-03-31T21:45:13.585Z,14.30
2023-03-31T21:49:17.434Z,14.30
2023-03-31T21:53:22.120Z,14.30
2023-03-31T21:57:26.270Z,14.30
2023-03-31T22:01:28.953Z,14.20
2023-03-31T22:05:33.067Z,14.20
2023-03-31T22:09:35.972Z,14.20
2023-03-31T22:13:39.003Z,14.20
2023-03-31T22:17:41.990Z,14.20
2023-03-31T22:21:45.121Z,14.20
2023-03-31T22:25:48.496Z,14.20
2023-03-31T22:29:51.520Z,14.20
2023-03-31T22:33:54.307Z,14.30
2023-03-31T22:37:57.111Z,14.30
2023-03-31T22:41:59.824Z,14.30
2023-03-31T22:46:05.880Z,14.30
2023-03-31T22:50:12.177Z,14.40
2023-03-31T22:54:15.803Z,14.40
2023-03-31T22:58:18.482Z,14.40
2023-03-31T23:02:21.152Z,14.40
2023-03-31T23:06:23.944Z,14.50
2023-03-31T23:10:27.328Z,14.50
2023-03-31T23:14:30.019Z,14.50
2023-03-31T23:18:33.418Z,14.60
2023-03-31T23:22:36.575Z,14.60
2023-03-31T23:26:39.425Z,14.70
2023-03-31T23:30:42.207Z,14.70
2023-03-31T23:34:45.781Z,14.70
2023-03-31T23:38:49.317Z,14.70
2023-03-31T23:42:53.528Z,14.60
2023-03-31T23:46:56.618Z,14.60
2023-03-31T23:50:59.206Z,14.50
2023-03-31T23:55:02.530Z,14.50
2023-03-31T23:59:05.432Z,14.50
